sensor_id;sensor_type;location;lat;lon;timestamp;P1;durP1;ratioP1;P2;durP2;ratioP2
8714;SDS011;4394;51.208;8.904;2022-07-23T00:01:26;16.57;;;10.50;;
8714;SDS011;4394;51.208;8.904;2022-07-23T00:04:15;16.17;;;11.47;;
8714;SDS011;4394;51.208;8.904;2022-07-23T00:07:07;17.03;;;10.33;;
8714;SDS011;4394;51.208;8.904;2022-07-23T00:09:55;15.03;;;10.23;;
8714;SDS011;4394;51.208;8.904;2022-07-23T00:12:43;18.13;;;10.87;;
8714;SDS011;4394;51.208;8.904;2022-07-23T00:15:39;16.60;;;10.30;;
8714;SDS011;4394;51.208;8.904;2022-07-23T00:18:28;16.27;;;10.40;;
8714;SDS011;4394;51.208;8.904;2022-07-23T00:21:17;17.17;;;11.03;;
8714;SDS011;4394;51.208;8.904;2022-07-23T00:24:05;14.47;;;9.63;;
8714;SDS011;4394;51.208;8.904;2022-07-23T00:26:54;15.00;;;10.30;;
8714;SDS011;4394;51.208;8.904;2022-07-23T00:29:44;16.20;;;10.97;;
8714;SDS011;4394;51.208;8.904;2022-07-23T00:32:46;16.17;;;11.00;;
8714;SDS011;4394;51.208;8.904;2022-07-23T00:35:42;15.60;;;10.07;;
8714;SDS011;4394;51.208;8.904;2022-07-23T00:38:31;14.67;;;10.67;;
8714;SDS011;4394;51.208;8.904;2022-07-23T00:41:19;17.30;;;11.03;;
8714;SDS011;4394;51.208;8.904;2022-07-23T00:44:16;16.20;;;10.20;;
8714;SDS011;4394;51.208;8.904;2022-07-23T00:47:06;17.23;;;10.70;;
8714;SDS011;4394;51.208;8.904;2022-07-23T00:49:56;14.97;;;10.10;;
8714;SDS011;4394;51.208;8.904;2022-07-23T00:52:48;15.37;;;10.33;;
8714;SDS011;4394;51.208;8.904;2022-07-23T00:55:37;15.57;;;10.00;;
8714;SDS011;4394;51.208;8.904;2022-07-23T00:58:28;20.40;;;11.17;;
8714;SDS011;4394;51.208;8.904;2022-07-23T01:01:16;16.07;;;11.00;;
8714;SDS011;4394;51.208;8.904;2022-07-23T01:04:04;16.73;;;10.37;;
8714;SDS011;4394;51.208;8.904;2022-07-23T01:06:55;12.77;;;9.53;;
8714;SDS011;4394;51.208;8.904;2022-07-23T01:09:44;18.30;;;11.27;;
8714;SDS011;4394;51.208;8.904;2022-07-23T01:12:34;16.37;;;10.63;;
8714;SDS011;4394;51.208;8.904;2022-07-23T01:15:23;17.47;;;10.13;;
8714;SDS011;4394;51.208;8.904;2022-07-23T01:18:13;14.60;;;10.50;;
8714;SDS011;4394;51.208;8.904;2022-07-23T01:21:00;16.10;;;10.40;;
8714;SDS011;4394;51.208;8.904;2022-07-23T01:23:50;15.47;;;10.80;;
8714;SDS011;4394;51.208;8.904;2022-07-23T01:26:40;15.53;;;9.97;;
8714;SDS011;4394;51.208;8.904;2022-07-23T01:29:30;16.03;;;10.43;;
8714;SDS011;4394;51.208;8.904;2022-07-23T01:32:18;17.17;;;10.70;;
8714;SDS011;4394;51.208;8.904;2022-07-23T01:35:07;18.33;;;11.10;;
8714;SDS011;4394;51.208;8.904;2022-07-23T01:37:55;13.93;;;10.17;;
8714;SDS011;4394;51.208;8.904;2022-07-23T01:40:45;18.60;;;11.40;;
8714;SDS011;4394;51.208;8.904;2022-07-23T01:43:39;20.60;;;10.67;;
8714;SDS011;4394;51.208;8.904;2022-07-23T01:46:27;17.00;;;10.97;;
8714;SDS011;4394;51.208;8.904;2022-07-23T01:49:18;17.50;;;11.60;;
8714;SDS011;4394;51.208;8.904;2022-07-23T01:52:07;21.90;;;12.57;;
8714;SDS011;4394;51.208;8.904;2022-07-23T01:54:57;19.97;;;11.97;;
8714;SDS011;4394;51.208;8.904;2022-07-23T01:57:47;18.23;;;11.53;;
8714;SDS011;4394;51.208;8.904;2022-07-23T02:00:36;17.87;;;11.60;;
8714;SDS011;4394;51.208;8.904;2022-07-23T02:03:25;19.67;;;12.43;;
8714;SDS011;4394;51.208;8.904;2022-07-23T02:06:15;19.97;;;12.37;;
8714;SDS011;4394;51.208;8.904;2022-07-23T02:09:03;18.73;;;11.93;;
8714;SDS011;4394;51.208;8.904;2022-07-23T02:11:51;19.37;;;12.90;;
8714;SDS011;4394;51.208;8.904;2022-07-23T02:14:40;21.10;;;13.07;;
8714;SDS011;4394;51.208;8.904;2022-07-23T02:17:29;19.67;;;12.90;;
8714;SDS011;4394;51.208;8.904;2022-07-23T02:20:17;19.30;;;12.87;;
8714;SDS011;4394;51.208;8.904;2022-07-23T02:23:05;19.10;;;12.37;;
8714;SDS011;4394;51.208;8.904;2022-07-23T02:25:55;19.47;;;12.93;;
8714;SDS011;4394;51.208;8.904;2022-07-23T02:28:43;19.53;;;12.73;;
8714;SDS011;4394;51.208;8.904;2022-07-23T02:31:33;18.97;;;12.83;;
8714;SDS011;4394;51.208;8.904;2022-07-23T02:34:22;22.37;;;13.67;;
8714;SDS011;4394;51.208;8.904;2022-07-23T02:37:10;20.13;;;12.87;;
8714;SDS011;4394;51.208;8.904;2022-07-23T02:39:59;18.07;;;11.77;;
8714;SDS011;4394;51.208;8.904;2022-07-23T02:42:48;18.13;;;11.67;;
8714;SDS011;4394;51.208;8.904;2022-07-23T02:45:36;17.37;;;11.40;;
8714;SDS011;4394;51.208;8.904;2022-07-23T02:48:26;17.27;;;10.97;;
8714;SDS011;4394;51.208;8.904;2022-07-23T02:51:14;16.23;;;10.83;;
8714;SDS011;4394;51.208;8.904;2022-07-23T02:54:03;19.53;;;11.87;;
8714;SDS011;4394;51.208;8.904;2022-07-23T02:56:51;18.27;;;11.73;;
8714;SDS011;4394;51.208;8.904;2022-07-23T02:59:39;19.73;;;11.63;;
8714;SDS011;4394;51.208;8.904;2022-07-23T03:02:28;18.57;;;11.00;;
8714;SDS011;4394;51.208;8.904;2022-07-23T03:05:18;17.93;;;11.83;;
8714;SDS011;4394;51.208;8.904;2022-07-23T03:08:07;17.70;;;11.50;;
8714;SDS011;4394;51.208;8.904;2022-07-23T03:10:55;14.53;;;10.37;;
8714;SDS011;4394;51.208;8.904;2022-07-23T03:13:45;14.97;;;10.90;;
8714;SDS011;4394;51.208;8.904;2022-07-23T03:16:33;17.47;;;11.97;;
8714;SDS011;4394;51.208;8.904;2022-07-23T03:19:23;15.97;;;11.20;;
8714;SDS011;4394;51.208;8.904;2022-07-23T03:22:12;16.90;;;11.23;;
8714;SDS011;4394;51.208;8.904;2022-07-23T03:25:02;17.40;;;11.57;;
8714;SDS011;4394;51.208;8.904;2022-07-23T03:27:51;18.67;;;11.90;;
8714;SDS011;4394;51.208;8.904;2022-07-23T03:30:39;19.07;;;11.33;;
8714;SDS011;4394;51.208;8.904;2022-07-23T03:33:27;16.60;;;10.77;;
8714;SDS011;4394;51.208;8.904;2022-07-23T03:36:15;17.33;;;12.37;;
8714;SDS011;4394;51.208;8.904;2022-07-23T03:39:08;17.03;;;11.23;;
8714;SDS011;4394;51.208;8.904;2022-07-23T03:41:58;16.57;;;10.93;;
8714;SDS011;4394;51.208;8.904;2022-07-23T03:44:49;16.67;;;11.27;;
8714;SDS011;4394;51.208;8.904;2022-07-23T03:47:38;19.20;;;11.30;;
8714;SDS011;4394;51.208;8.904;2022-07-23T03:50:26;15.83;;;10.67;;
8714;SDS011;4394;51.208;8.904;2022-07-23T03:53:14;20.73;;;11.10;;
8714;SDS011;4394;51.208;8.904;2022-07-23T03:56:04;16.30;;;10.43;;
8714;SDS011;4394;51.208;8.904;2022-07-23T03:58:52;16.83;;;11.17;;
8714;SDS011;4394;51.208;8.904;2022-07-23T04:01:40;16.30;;;10.97;;
8714;SDS011;4394;51.208;8.904;2022-07-23T04:04:29;18.83;;;10.27;;
8714;SDS011;4394;51.208;8.904;2022-07-23T04:07:17;18.03;;;11.33;;
8714;SDS011;4394;51.208;8.904;2022-07-23T04:10:06;18.73;;;10.93;;
8714;SDS011;4394;51.208;8.904;2022-07-23T04:12:56;19.00;;;10.73;;
8714;SDS011;4394;51.208;8.904;2022-07-23T04:15:47;19.37;;;11.37;;
8714;SDS011;4394;51.208;8.904;2022-07-23T04:18:37;16.07;;;10.83;;
8714;SDS011;4394;51.208;8.904;2022-07-23T04:21:25;15.80;;;11.30;;
8714;SDS011;4394;51.208;8.904;2022-07-23T04:24:14;18.10;;;11.07;;
8714;SDS011;4394;51.208;8.904;2022-07-23T04:27:04;14.77;;;10.00;;
8714;SDS011;4394;51.208;8.904;2022-07-23T04:29:53;15.73;;;10.40;;
8714;SDS011;4394;51.208;8.904;2022-07-23T04:32:41;16.27;;;10.17;;
8714;SDS011;4394;51.208;8.904;2022-07-23T04:35:29;15.43;;;9.93;;
8714;SDS011;4394;51.208;8.904;2022-07-23T04:38:17;19.50;;;10.47;;
8714;SDS011;4394;51.208;8.904;2022-07-23T04:41:05;15.43;;;10.23;;
8714;SDS011;4394;51.208;8.904;2022-07-23T04:43:53;17.57;;;10.90;;
8714;SDS011;4394;51.208;8.904;2022-07-23T04:46:43;16.00;;;10.40;;
8714;SDS011;4394;51.208;8.904;2022-07-23T04:49:32;17.70;;;10.67;;
8714;SDS011;4394;51.208;8.904;2022-07-23T04:52:20;14.33;;;9.77;;
8714;SDS011;4394;51.208;8.904;2022-07-23T04:55:09;18.13;;;10.10;;
8714;SDS011;4394;51.208;8.904;2022-07-23T04:57:57;15.43;;;10.10;;
8714;SDS011;4394;51.208;8.904;2022-07-23T05:00:45;14.60;;;10.63;;
8714;SDS011;4394;51.208;8.904;2022-07-23T05:03:34;15.07;;;10.10;;
8714;SDS011;4394;51.208;8.904;2022-07-23T05:06:23;15.93;;;10.73;;
8714;SDS011;4394;51.208;8.904;2022-07-23T05:09:11;16.33;;;10.40;;
8714;SDS011;4394;51.208;8.904;2022-07-23T05:11:59;15.17;;;10.07;;
8714;SDS011;4394;51.208;8.904;2022-07-23T05:14:47;14.73;;;9.70;;
8714;SDS011;4394;51.208;8.904;2022-07-23T05:17:35;12.67;;;9.03;;
8714;SDS011;4394;51.208;8.904;2022-07-23T05:20:25;15.13;;;10.33;;
8714;SDS011;4394;51.208;8.904;2022-07-23T05:23:13;15.23;;;9.10;;
8714;SDS011;4394;51.208;8.904;2022-07-23T05:26:02;14.63;;;9.27;;
8714;SDS011;4394;51.208;8.904;2022-07-23T05:28:50;13.50;;;8.80;;
8714;SDS011;4394;51.208;8.904;2022-07-23T05:31:38;12.13;;;8.57;;
8714;SDS011;4394;51.208;8.904;2022-07-23T05:34:27;13.20;;;9.97;;
8714;SDS011;4394;51.208;8.904;2022-07-23T05:37:17;15.43;;;9.47;;
8714;SDS011;4394;51.208;8.904;2022-07-23T05:40:05;14.23;;;9.60;;
8714;SDS011;4394;51.208;8.904;2022-07-23T05:42:56;10.43;;;8.30;;
8714;SDS011;4394;51.208;8.904;2022-07-23T05:45:45;14.27;;;9.83;;
8714;SDS011;4394;51.208;8.904;2022-07-23T05:48:34;15.07;;;9.43;;
8714;SDS011;4394;51.208;8.904;2022-07-23T05:51:23;12.87;;;9.00;;
8714;SDS011;4394;51.208;8.904;2022-07-23T05:54:13;12.97;;;8.73;;
8714;SDS011;4394;51.208;8.904;2022-07-23T05:57:06;11.10;;;8.50;;
8714;SDS011;4394;51.208;8.904;2022-07-23T05:59:54;13.63;;;8.63;;
8714;SDS011;4394;51.208;8.904;2022-07-23T06:02:45;12.77;;;8.60;;
8714;SDS011;4394;51.208;8.904;2022-07-23T06:05:41;12.33;;;9.40;;
8714;SDS011;4394;51.208;8.904;2022-07-23T06:08:29;12.40;;;8.37;;
8714;SDS011;4394;51.208;8.904;2022-07-23T06:11:20;16.03;;;8.57;;
8714;SDS011;4394;51.208;8.904;2022-07-23T06:14:09;13.10;;;9.03;;
8714;SDS011;4394;51.208;8.904;2022-07-23T06:16:57;12.70;;;9.10;;
8714;SDS011;4394;51.208;8.904;2022-07-23T06:19:46;13.67;;;9.63;;
8714;SDS011;4394;51.208;8.904;2022-07-23T06:22:34;13.37;;;9.20;;
8714;SDS011;4394;51.208;8.904;2022-07-23T06:25:22;14.50;;;8.87;;
8714;SDS011;4394;51.208;8.904;2022-07-23T06:28:12;11.97;;;8.60;;
8714;SDS011;4394;51.208;8.904;2022-07-23T06:31:00;13.20;;;8.40;;
8714;SDS011;4394;51.208;8.904;2022-07-23T06:33:50;13.27;;;8.57;;
8714;SDS011;4394;51.208;8.904;2022-07-23T06:36:38;10.53;;;7.27;;
8714;SDS011;4394;51.208;8.904;2022-07-23T06:39:28;9.10;;;6.70;;
8714;SDS011;4394;51.208;8.904;2022-07-23T06:42:16;11.10;;;6.63;;
8714;SDS011;4394;51.208;8.904;2022-07-23T06:45:07;6.90;;;5.83;;
8714;SDS011;4394;51.208;8.904;2022-07-23T06:47:55;6.73;;;5.17;;
8714;SDS011;4394;51.208;8.904;2022-07-23T06:50:44;6.67;;;5.13;;
8714;SDS011;4394;51.208;8.904;2022-07-23T06:53:32;7.37;;;5.60;;
8714;SDS011;4394;51.208;8.904;2022-07-23T06:56:20;8.73;;;5.70;;
8714;SDS011;4394;51.208;8.904;2022-07-23T06:59:09;8.37;;;6.03;;
8714;SDS011;4394;51.208;8.904;2022-07-23T07:01:58;6.87;;;5.93;;
8714;SDS011;4394;51.208;8.904;2022-07-23T07:04:46;8.03;;;5.20;;
8714;SDS011;4394;51.208;8.904;2022-07-23T07:07:34;6.87;;;4.53;;
8714;SDS011;4394;51.208;8.904;2022-07-23T07:10:23;5.90;;;4.50;;
8714;SDS011;4394;51.208;8.904;2022-07-23T07:13:12;5.40;;;3.63;;
8714;SDS011;4394;51.208;8.904;2022-07-23T07:16:01;5.53;;;3.93;;
8714;SDS011;4394;51.208;8.904;2022-07-23T07:18:50;5.80;;;4.07;;
8714;SDS011;4394;51.208;8.904;2022-07-23T07:21:38;3.97;;;3.50;;
8714;SDS011;4394;51.208;8.904;2022-07-23T07:24:26;5.07;;;4.03;;
8714;SDS011;4394;51.208;8.904;2022-07-23T07:27:21;5.60;;;4.00;;
8714;SDS011;4394;51.208;8.904;2022-07-23T07:30:10;5.57;;;3.80;;
8714;SDS011;4394;51.208;8.904;2022-07-23T07:32:59;4.90;;;4.03;;
8714;SDS011;4394;51.208;8.904;2022-07-23T07:35:49;6.67;;;3.57;;
8714;SDS011;4394;51.208;8.904;2022-07-23T07:38:37;4.63;;;3.80;;
8714;SDS011;4394;51.208;8.904;2022-07-23T07:41:25;5.20;;;4.20;;
8714;SDS011;4394;51.208;8.904;2022-07-23T07:44:13;6.10;;;4.30;;
8714;SDS011;4394;51.208;8.904;2022-07-23T07:47:01;6.00;;;3.90;;
8714;SDS011;4394;51.208;8.904;2022-07-23T07:49:50;6.13;;;4.30;;
8714;SDS011;4394;51.208;8.904;2022-07-23T07:52:40;5.67;;;4.27;;
8714;SDS011;4394;51.208;8.904;2022-07-23T07:55:29;5.53;;;4.70;;
8714;SDS011;4394;51.208;8.904;2022-07-23T07:58:17;7.37;;;5.00;;
8714;SDS011;4394;51.208;8.904;2022-07-23T08:01:06;6.47;;;4.30;;
8714;SDS011;4394;51.208;8.904;2022-07-23T08:03:54;5.23;;;4.20;;
8714;SDS011;4394;51.208;8.904;2022-07-23T08:06:44;6.03;;;4.93;;
8714;SDS011;4394;51.208;8.904;2022-07-23T08:09:33;5.67;;;4.80;;
8714;SDS011;4394;51.208;8.904;2022-07-23T08:12:22;8.17;;;5.67;;
8714;SDS011;4394;51.208;8.904;2022-07-23T08:15:11;7.30;;;5.40;;
8714;SDS011;4394;51.208;8.904;2022-07-23T08:18:00;6.17;;;4.90;;
8714;SDS011;4394;51.208;8.904;2022-07-23T08:20:48;7.13;;;5.00;;
8714;SDS011;4394;51.208;8.904;2022-07-23T08:23:36;6.37;;;5.00;;
8714;SDS011;4394;51.208;8.904;2022-07-23T08:26:25;8.13;;;4.90;;
8714;SDS011;4394;51.208;8.904;2022-07-23T08:29:14;5.33;;;4.80;;
8714;SDS011;4394;51.208;8.904;2022-07-23T08:32:03;6.73;;;5.47;;
8714;SDS011;4394;51.208;8.904;2022-07-23T08:35:12;6.27;;;5.03;;
8714;SDS011;4394;51.208;8.904;2022-07-23T08:38:02;6.57;;;5.53;;
8714;SDS011;4394;51.208;8.904;2022-07-23T08:40:52;6.23;;;5.10;;
8714;SDS011;4394;51.208;8.904;2022-07-23T08:43:45;6.70;;;4.83;;
8714;SDS011;4394;51.208;8.904;2022-07-23T08:46:33;6.53;;;5.00;;
8714;SDS011;4394;51.208;8.904;2022-07-23T08:49:28;6.53;;;5.20;;
8714;SDS011;4394;51.208;8.904;2022-07-23T08:52:17;7.23;;;5.17;;
8714;SDS011;4394;51.208;8.904;2022-07-23T08:55:13;5.67;;;4.93;;
8714;SDS011;4394;51.208;8.904;2022-07-23T08:58:03;6.03;;;5.07;;
8714;SDS011;4394;51.208;8.904;2022-07-23T09:00:53;6.40;;;5.23;;
8714;SDS011;4394;51.208;8.904;2022-07-23T09:03:43;5.50;;;4.47;;
8714;SDS011;4394;51.208;8.904;2022-07-23T09:06:33;6.73;;;4.13;;
8714;SDS011;4394;51.208;8.904;2022-07-23T09:09:22;5.20;;;4.70;;
8714;SDS011;4394;51.208;8.904;2022-07-23T09:12:16;4.93;;;3.80;;
8714;SDS011;4394;51.208;8.904;2022-07-23T09:15:04;4.40;;;4.00;;
8714;SDS011;4394;51.208;8.904;2022-07-23T09:17:55;6.00;;;4.33;;
8714;SDS011;4394;51.208;8.904;2022-07-23T09:20:44;7.77;;;4.60;;
8714;SDS011;4394;51.208;8.904;2022-07-23T09:23:36;5.50;;;3.90;;
8714;SDS011;4394;51.208;8.904;2022-07-23T09:26:30;5.67;;;4.20;;
8714;SDS011;4394;51.208;8.904;2022-07-23T09:29:21;5.70;;;4.27;;
8714;SDS011;4394;51.208;8.904;2022-07-23T09:32:13;5.17;;;4.50;;
8714;SDS011;4394;51.208;8.904;2022-07-23T09:35:03;5.30;;;3.80;;
8714;SDS011;4394;51.208;8.904;2022-07-23T09:38:00;5.00;;;4.50;;
8714;SDS011;4394;51.208;8.904;2022-07-23T09:41:04;4.47;;;3.77;;
8714;SDS011;4394;51.208;8.904;2022-07-23T09:43:55;4.70;;;4.20;;
8714;SDS011;4394;51.208;8.904;2022-07-23T09:46:44;4.17;;;3.77;;
8714;SDS011;4394;51.208;8.904;2022-07-23T09:49:33;4.10;;;3.70;;
8714;SDS011;4394;51.208;8.904;2022-07-23T09:52:27;5.03;;;4.00;;
8714;SDS011;4394;51.208;8.904;2022-07-23T09:55:21;4.87;;;3.77;;
8714;SDS011;4394;51.208;8.904;2022-07-23T09:58:22;4.40;;;4.00;;
8714;SDS011;4394;51.208;8.904;2022-07-23T10:01:13;6.57;;;5.20;;
8714;SDS011;4394;51.208;8.904;2022-07-23T10:04:02;4.67;;;3.90;;
8714;SDS011;4394;51.208;8.904;2022-07-23T10:06:52;4.20;;;3.63;;
8714;SDS011;4394;51.208;8.904;2022-07-23T10:09:43;5.37;;;3.60;;
8714;SDS011;4394;51.208;8.904;2022-07-23T10:12:35;4.63;;;3.30;;
8714;SDS011;4394;51.208;8.904;2022-07-23T10:15:50;4.00;;;3.60;;
8714;SDS011;4394;51.208;8.904;2022-07-23T10:18:39;4.27;;;3.47;;
8714;SDS011;4394;51.208;8.904;2022-07-23T10:21:34;3.83;;;3.43;;
8714;SDS011;4394;51.208;8.904;2022-07-23T10:24:38;4.50;;;3.23;;
8714;SDS011;4394;51.208;8.904;2022-07-23T10:31:00;4.40;;;3.50;;
8714;SDS011;4394;51.208;8.904;2022-07-23T10:33:54;5.10;;;3.40;;
8714;SDS011;4394;51.208;8.904;2022-07-23T10:36:52;5.03;;;3.30;;
8714;SDS011;4394;51.208;8.904;2022-07-23T10:39:47;4.33;;;3.50;;
8714;SDS011;4394;51.208;8.904;2022-07-23T10:42:35;4.13;;;3.60;;
8714;SDS011;4394;51.208;8.904;2022-07-23T10:45:25;4.57;;;3.33;;
8714;SDS011;4394;51.208;8.904;2022-07-23T10:48:16;4.10;;;3.70;;
8714;SDS011;4394;51.208;8.904;2022-07-23T10:51:07;4.17;;;3.50;;
8714;SDS011;4394;51.208;8.904;2022-07-23T10:53:58;4.43;;;3.60;;
8714;SDS011;4394;51.208;8.904;2022-07-23T11:03:05;4.20;;;3.80;;
8714;SDS011;4394;51.208;8.904;2022-07-23T11:06:15;5.53;;;3.70;;
8714;SDS011;4394;51.208;8.904;2022-07-23T11:15:22;3.53;;;3.10;;
8714;SDS011;4394;51.208;8.904;2022-07-23T11:18:10;4.30;;;3.73;;
8714;SDS011;4394;51.208;8.904;2022-07-23T11:21:03;3.50;;;3.20;;
8714;SDS011;4394;51.208;8.904;2022-07-23T11:24:31;4.00;;;3.40;;
8714;SDS011;4394;51.208;8.904;2022-07-23T11:27:38;3.63;;;3.17;;
8714;SDS011;4394;51.208;8.904;2022-07-23T11:30:37;3.77;;;3.40;;
8714;SDS011;4394;51.208;8.904;2022-07-23T11:33:27;6.33;;;3.70;;
8714;SDS011;4394;51.208;8.904;2022-07-23T11:36:15;5.20;;;3.33;;
8714;SDS011;4394;51.208;8.904;2022-07-23T11:39:03;4.47;;;3.13;;
8714;SDS011;4394;51.208;8.904;2022-07-23T11:41:52;3.80;;;3.50;;
8714;SDS011;4394;51.208;8.904;2022-07-23T11:44:41;4.10;;;3.20;;
8714;SDS011;4394;51.208;8.904;2022-07-23T11:47:35;5.50;;;3.33;;
8714;SDS011;4394;51.208;8.904;2022-07-23T11:50:24;3.30;;;3.00;;
8714;SDS011;4394;51.208;8.904;2022-07-23T11:53:13;3.40;;;3.10;;
8714;SDS011;4394;51.208;8.904;2022-07-23T11:56:10;3.70;;;3.30;;
8714;SDS011;4394;51.208;8.904;2022-07-23T11:59:00;3.67;;;3.37;;
8714;SDS011;4394;51.208;8.904;2022-07-23T12:01:56;3.67;;;3.37;;
8714;SDS011;4394;51.208;8.904;2022-07-23T12:04:46;4.50;;;3.40;;
8714;SDS011;4394;51.208;8.904;2022-07-23T12:07:36;4.07;;;3.67;;
8714;SDS011;4394;51.208;8.904;2022-07-23T12:10:28;4.10;;;3.70;;
8714;SDS011;4394;51.208;8.904;2022-07-23T12:13:19;3.83;;;3.10;;
8714;SDS011;4394;51.208;8.904;2022-07-23T12:16:11;3.70;;;3.30;;
8714;SDS011;4394;51.208;8.904;2022-07-23T12:18:59;3.70;;;3.37;;
8714;SDS011;4394;51.208;8.904;2022-07-23T12:21:49;3.87;;;3.57;;
8714;SDS011;4394;51.208;8.904;2022-07-23T12:24:57;3.83;;;3.53;;
8714;SDS011;4394;51.208;8.904;2022-07-23T12:27:57;4.47;;;3.60;;
8714;SDS011;4394;51.208;8.904;2022-07-23T12:30:47;4.60;;;3.73;;
8714;SDS011;4394;51.208;8.904;2022-07-23T12:33:38;3.90;;;3.47;;
8714;SDS011;4394;51.208;8.904;2022-07-23T12:36:36;4.03;;;3.33;;
8714;SDS011;4394;51.208;8.904;2022-07-23T12:39:29;3.83;;;3.50;;
8714;SDS011;4394;51.208;8.904;2022-07-23T12:42:17;4.30;;;3.50;;
8714;SDS011;4394;51.208;8.904;2022-07-23T12:45:07;4.60;;;3.50;;
8714;SDS011;4394;51.208;8.904;2022-07-23T12:47:59;3.80;;;3.50;;
8714;SDS011;4394;51.208;8.904;2022-07-23T12:50:57;4.00;;;3.60;;
8714;SDS011;4394;51.208;8.904;2022-07-23T12:53:47;4.03;;;3.63;;
8714;SDS011;4394;51.208;8.904;2022-07-23T12:56:37;4.13;;;3.73;;
8714;SDS011;4394;51.208;8.904;2022-07-23T12:59:30;3.60;;;3.30;;
8714;SDS011;4394;51.208;8.904;2022-07-23T13:02:19;3.70;;;3.40;;
8714;SDS011;4394;51.208;8.904;2022-07-23T13:05:08;3.97;;;3.47;;
8714;SDS011;4394;51.208;8.904;2022-07-23T13:07:59;3.80;;;3.50;;
8714;SDS011;4394;51.208;8.904;2022-07-23T13:10:48;4.07;;;3.73;;
8714;SDS011;4394;51.208;8.904;2022-07-23T13:13:37;4.33;;;3.50;;
8714;SDS011;4394;51.208;8.904;2022-07-23T13:16:27;4.07;;;3.77;;
8714;SDS011;4394;51.208;8.904;2022-07-23T13:19:16;4.20;;;3.80;;
8714;SDS011;4394;51.208;8.904;2022-07-23T13:22:06;5.10;;;4.00;;
8714;SDS011;4394;51.208;8.904;2022-07-23T13:24:57;4.10;;;3.70;;
8714;SDS011;4394;51.208;8.904;2022-07-23T13:27:46;4.50;;;4.03;;
8714;SDS011;4394;51.208;8.904;2022-07-23T13:30:35;4.57;;;4.00;;
8714;SDS011;4394;51.208;8.904;2022-07-23T13:33:24;4.70;;;4.00;;
8714;SDS011;4394;51.208;8.904;2022-07-23T13:36:12;5.80;;;4.00;;
8714;SDS011;4394;51.208;8.904;2022-07-23T13:39:01;4.43;;;4.03;;
8714;SDS011;4394;51.208;8.904;2022-07-23T13:41:52;5.23;;;4.30;;
8714;SDS011;4394;51.208;8.904;2022-07-23T13:44:41;4.10;;;3.80;;
8714;SDS011;4394;51.208;8.904;2022-07-23T13:47:30;4.90;;;4.00;;
8714;SDS011;4394;51.208;8.904;2022-07-23T13:50:18;4.40;;;4.00;;
8714;SDS011;4394;51.208;8.904;2022-07-23T13:53:09;4.50;;;4.10;;
8714;SDS011;4394;51.208;8.904;2022-07-23T13:55:58;4.65;;;4.22;;
8714;SDS011;4394;51.208;8.904;2022-07-23T13:58:48;4.90;;;4.20;;
8714;SDS011;4394;51.208;8.904;2022-07-23T14:01:37;5.20;;;4.37;;
8714;SDS011;4394;51.208;8.904;2022-07-23T14:04:47;5.45;;;4.35;;
8714;SDS011;4394;51.208;8.904;2022-07-23T14:07:36;6.40;;;4.80;;
8714;SDS011;4394;51.208;8.904;2022-07-23T14:10:25;5.47;;;4.40;;
8714;SDS011;4394;51.208;8.904;2022-07-23T14:13:13;5.22;;;4.63;;
8714;SDS011;4394;51.208;8.904;2022-07-23T14:16:04;4.72;;;4.32;;
8714;SDS011;4394;51.208;8.904;2022-07-23T14:18:53;5.50;;;4.28;;
8714;SDS011;4394;51.208;8.904;2022-07-23T14:21:41;5.37;;;4.57;;
8714;SDS011;4394;51.208;8.904;2022-07-23T14:24:30;5.60;;;4.97;;
8714;SDS011;4394;51.208;8.904;2022-07-23T14:27:20;4.93;;;4.53;;
8714;SDS011;4394;51.208;8.904;2022-07-23T14:30:11;5.72;;;4.72;;
8714;SDS011;4394;51.208;8.904;2022-07-23T14:33:02;5.07;;;4.63;;
8714;SDS011;4394;51.208;8.904;2022-07-23T14:35:51;5.35;;;4.75;;
8714;SDS011;4394;51.208;8.904;2022-07-23T14:38:39;5.38;;;4.63;;
8714;SDS011;4394;51.208;8.904;2022-07-23T14:41:27;5.15;;;4.75;;
8714;SDS011;4394;51.208;8.904;2022-07-23T14:44:16;5.40;;;4.90;;
8714;SDS011;4394;51.208;8.904;2022-07-23T14:47:05;5.32;;;4.82;;
8714;SDS011;4394;51.208;8.904;2022-07-23T14:49:56;5.38;;;4.95;;
8714;SDS011;4394;51.208;8.904;2022-07-23T14:52:44;6.13;;;4.60;;
8714;SDS011;4394;51.208;8.904;2022-07-23T14:55:54;6.20;;;5.10;;
8714;SDS011;4394;51.208;8.904;2022-07-23T14:58:43;5.18;;;4.68;;
8714;SDS011;4394;51.208;8.904;2022-07-23T15:01:31;5.45;;;4.90;;
8714;SDS011;4394;51.208;8.904;2022-07-23T15:04:20;5.25;;;4.85;;
8714;SDS011;4394;51.208;8.904;2022-07-23T15:07:25;5.30;;;4.80;;
8714;SDS011;4394;51.208;8.904;2022-07-23T15:10:16;5.55;;;4.60;;
8714;SDS011;4394;51.208;8.904;2022-07-23T15:13:07;5.38;;;4.97;;
8714;SDS011;4394;51.208;8.904;2022-07-23T15:15:55;5.28;;;4.82;;
8714;SDS011;4394;51.208;8.904;2022-07-23T15:18:48;5.28;;;4.78;;
8714;SDS011;4394;51.208;8.904;2022-07-23T15:21:38;5.50;;;5.10;;
8714;SDS011;4394;51.208;8.904;2022-07-23T15:24:35;5.82;;;5.32;;
8714;SDS011;4394;51.208;8.904;2022-07-23T15:27:24;6.03;;;5.43;;
8714;SDS011;4394;51.208;8.904;2022-07-23T15:30:16;5.20;;;4.80;;
8714;SDS011;4394;51.208;8.904;2022-07-23T15:33:05;5.18;;;4.75;;
8714;SDS011;4394;51.208;8.904;2022-07-23T15:36:05;5.25;;;4.82;;
8714;SDS011;4394;51.208;8.904;2022-07-23T15:38:53;5.60;;;5.10;;
8714;SDS011;4394;51.208;8.904;2022-07-23T15:41:42;6.20;;;5.60;;
8714;SDS011;4394;51.208;8.904;2022-07-23T15:44:33;5.60;;;5.10;;
8714;SDS011;4394;51.208;8.904;2022-07-23T15:47:22;5.68;;;5.13;;
8714;SDS011;4394;51.208;8.904;2022-07-23T15:50:10;5.55;;;5.00;;
8714;SDS011;4394;51.208;8.904;2022-07-23T15:52:58;4.85;;;4.45;;
8714;SDS011;4394;51.208;8.904;2022-07-23T15:55:47;5.25;;;4.85;;
8714;SDS011;4394;51.208;8.904;2022-07-23T15:58:37;5.18;;;4.70;;
8714;SDS011;4394;51.208;8.904;2022-07-23T16:01:25;5.28;;;4.78;;
8714;SDS011;4394;51.208;8.904;2022-07-23T16:04:15;5.07;;;4.60;;
8714;SDS011;4394;51.208;8.904;2022-07-23T16:07:05;4.70;;;4.30;;
8714;SDS011;4394;51.208;8.904;2022-07-23T16:10:13;4.65;;;4.28;;
8714;SDS011;4394;51.208;8.904;2022-07-23T16:13:01;4.53;;;4.13;;
8714;SDS011;4394;51.208;8.904;2022-07-23T16:15:51;5.50;;;4.38;;
8714;SDS011;4394;51.208;8.904;2022-07-23T16:18:40;4.63;;;4.15;;
8714;SDS011;4394;51.208;8.904;2022-07-23T16:21:28;4.72;;;4.05;;
8714;SDS011;4394;51.208;8.904;2022-07-23T16:24:17;4.43;;;4.03;;
8714;SDS011;4394;51.208;8.904;2022-07-23T16:27:06;4.68;;;4.28;;
8714;SDS011;4394;51.208;8.904;2022-07-23T16:29:54;4.43;;;4.03;;
8714;SDS011;4394;51.208;8.904;2022-07-23T16:32:44;5.15;;;4.55;;
8714;SDS011;4394;51.208;8.904;2022-07-23T16:35:33;4.53;;;4.05;;
8714;SDS011;4394;51.208;8.904;2022-07-23T16:38:22;4.10;;;3.65;;
8714;SDS011;4394;51.208;8.904;2022-07-23T16:41:12;4.60;;;4.20;;
8714;SDS011;4394;51.208;8.904;2022-07-23T16:44:00;4.22;;;3.83;;
8714;SDS011;4394;51.208;8.904;2022-07-23T16:46:48;4.10;;;3.70;;
8714;SDS011;4394;51.208;8.904;2022-07-23T16:49:38;4.47;;;3.88;;
8714;SDS011;4394;51.208;8.904;2022-07-23T16:52:26;3.85;;;3.55;;
8714;SDS011;4394;51.208;8.904;2022-07-23T16:55:15;5.00;;;4.10;;
8714;SDS011;4394;51.208;8.904;2022-07-23T16:58:04;4.30;;;3.90;;
8714;SDS011;4394;51.208;8.904;2022-07-23T17:00:53;4.22;;;3.72;;
8714;SDS011;4394;51.208;8.904;2022-07-23T17:03:41;3.90;;;3.60;;
8714;SDS011;4394;51.208;8.904;2022-07-23T17:06:33;4.13;;;3.83;;
8714;SDS011;4394;51.208;8.904;2022-07-23T17:09:22;3.97;;;3.67;;
8714;SDS011;4394;51.208;8.904;2022-07-23T17:12:11;3.70;;;3.50;;
8714;SDS011;4394;51.208;8.904;2022-07-23T17:14:59;3.63;;;3.33;;
8714;SDS011;4394;51.208;8.904;2022-07-23T17:17:52;3.85;;;3.25;;
8714;SDS011;4394;51.208;8.904;2022-07-23T17:20:42;3.35;;;3.15;;
8714;SDS011;4394;51.208;8.904;2022-07-23T17:23:33;3.90;;;3.50;;
8714;SDS011;4394;51.208;8.904;2022-07-23T17:26:21;3.83;;;3.40;;
8714;SDS011;4394;51.208;8.904;2022-07-23T17:29:10;5.30;;;3.35;;
8714;SDS011;4394;51.208;8.904;2022-07-23T17:31:58;4.30;;;3.42;;
8714;SDS011;4394;51.208;8.904;2022-07-23T17:34:46;3.80;;;3.28;;
8714;SDS011;4394;51.208;8.904;2022-07-23T17:37:35;3.50;;;3.20;;
8714;SDS011;4394;51.208;8.904;2022-07-23T17:40:24;3.90;;;3.15;;
8714;SDS011;4394;51.208;8.904;2022-07-23T17:43:13;3.58;;;3.38;;